createdAt,value
2023-02-14T00:00:10.596Z,1.83
2023-02-14T00:02:38.952Z,1.70
2023-02-14T00:05:07.770Z,1.91
2023-02-14T00:07:36.100Z,1.95
2023-02-14T00:10:04.445Z,2.25
2023-02-14T00:12:32.730Z,1.55
2023-02-14T00:15:18.602Z,1.35
2023-02-14T00:17:48.321Z,1.42
2023-02-14T00:20:16.759Z,1.50
2023-02-14T00:22:45.079Z,1.40
2023-02-14T00:25:13.746Z,1.47
2023-02-14T00:27:44.333Z,1.43
2023-02-14T00:30:14.212Z,1.45
2023-02-14T00:32:43.335Z,1.15
2023-02-14T00:35:13.551Z,1.21
2023-02-14T00:37:42.587Z,1.18
2023-02-14T00:40:11.415Z,1.27
2023-02-14T00:42:41.061Z,1.63
2023-02-14T00:45:10.200Z,1.31
2023-02-14T00:47:40.859Z,1.46
2023-02-14T00:50:10.039Z,1.26
2023-02-14T00:52:39.716Z,1.28
2023-02-14T00:55:08.112Z,1.24
2023-02-14T00:57:36.415Z,1.24
2023-02-14T01:00:08.081Z,1.34
2023-02-14T01:02:36.433Z,1.21
2023-02-14T01:05:04.958Z,0.97
2023-02-14T01:07:33.310Z,1.09
2023-02-14T01:10:03.230Z,1.49
2023-02-14T01:12:33.802Z,1.11
2023-02-14T01:15:02.532Z,1.36
2023-02-14T01:17:30.844Z,1.75
2023-02-14T01:19:59.113Z,1.00
2023-02-14T01:22:27.490Z,1.23
2023-02-14T01:24:55.774Z,1.20
2023-02-14T01:27:25.430Z,0.99
2023-02-14T01:29:55.398Z,1.11
2023-02-14T01:32:23.921Z,1.11
2023-02-14T01:34:54.680Z,1.06
2023-02-14T01:37:23.036Z,1.00
2023-02-14T01:39:53.465Z,1.05
2023-02-14T01:42:21.826Z,0.87
2023-02-14T01:45:09.285Z,0.62
2023-02-14T01:47:44.670Z,0.74
2023-02-14T01:50:18.261Z,0.82
2023-02-14T01:52:50.339Z,0.74
2023-02-14T01:55:22.737Z,0.79
2023-02-14T01:57:55.798Z,0.56
2023-02-14T02:00:43.662Z,0.52
2023-02-14T02:03:14.558Z,1.19
2023-02-14T02:05:46.880Z,0.61
2023-02-14T02:08:15.850Z,0.81
2023-02-14T02:10:45.673Z,0.63
2023-02-14T02:13:18.195Z,0.43
2023-02-14T02:15:57.703Z,0.44
2023-02-14T02:18:39.380Z,0.30
2023-02-14T02:21:57.470Z,0.32
2023-02-14T02:24:36.759Z,0.18
2023-02-14T02:27:21.434Z,0.22
2023-02-14T02:30:41.788Z,0.32
2023-02-14T02:33:56.962Z,0.33
2023-02-14T02:36:48.635Z,0.46
2023-02-14T02:39:34.449Z,0.46
2023-02-14T02:42:11.595Z,0.75
2023-02-14T02:44:50.648Z,0.57
2023-02-14T02:47:28.118Z,0.91
2023-02-14T02:50:24.816Z,0.85
2023-02-14T02:53:06.237Z,0.57
2023-02-14T02:56:01.699Z,0.49
2023-02-14T02:58:36.243Z,0.51
2023-02-14T03:01:10.154Z,0.47
2023-02-14T03:03:58.708Z,0.51
2023-02-14T03:06:27.903Z,0.44
2023-02-14T03:08:57.549Z,0.78
2023-02-14T03:11:27.034Z,0.84
2023-02-14T03:14:09.157Z,0.86
2023-02-14T03:16:48.580Z,1.14
2023-02-14T03:20:05.704Z,1.65
2023-02-14T03:22:44.737Z,1.83
2023-02-14T03:25:25.523Z,1.39
2023-02-14T03:28:00.011Z,1.32
2023-02-14T03:30:40.251Z,1.09
2023-02-14T03:33:17.738Z,1.11
2023-02-14T03:35:53.286Z,0.98
2023-02-14T03:38:26.174Z,0.83
2023-02-14T03:41:01.550Z,0.78
2023-02-14T03:43:34.160Z,0.65
2023-02-14T03:46:07.261Z,0.71
2023-02-14T03:48:38.299Z,0.91
2023-02-14T03:51:10.407Z,0.79
2023-02-14T03:53:43.347Z,0.71
2023-02-14T03:56:16.801Z,0.80
2023-02-14T03:58:50.211Z,1.07
2023-02-14T04:01:23.017Z,0.83
2023-02-14T04:03:53.741Z,0.93
2023-02-14T04:06:22.592Z,0.97
2023-02-14T04:08:50.937Z,1.23
2023-02-14T04:11:22.583Z,1.57
2023-02-14T04:13:52.026Z,2.09
2023-02-14T04:16:20.788Z,2.00
2023-02-14T04:19:09.788Z,2.08
2023-02-14T04:21:40.510Z,1.72
2023-02-14T04:24:08.982Z,1.70
2023-02-14T04:26:38.681Z,1.71
2023-02-14T04:29:06.981Z,1.31
2023-02-14T04:31:35.715Z,1.21
2023-02-14T04:34:04.033Z,1.31
2023-02-14T04:36:32.375Z,0.72
2023-02-14T04:39:00.767Z,0.66
2023-02-14T04:41:29.469Z,0.82
2023-02-14T04:43:59.129Z,0.83
2023-02-14T04:46:27.482Z,0.70
2023-02-14T04:48:55.787Z,0.43
2023-02-14T04:51:25.675Z,0.86
2023-02-14T04:53:55.692Z,0.65
2023-02-14T04:56:25.987Z,0.40
2023-02-14T04:58:54.594Z,0.30
2023-02-14T05:01:24.275Z,0.45
2023-02-14T05:03:52.553Z,0.27
2023-02-14T05:06:20.896Z,0.20
2023-02-14T05:08:49.309Z,0.32
2023-02-14T05:11:17.737Z,0.17
2023-02-14T05:13:46.050Z,0.04
2023-02-14T05:16:14.336Z,0.14
2023-02-14T05:18:44.052Z,0.28
2023-02-14T05:21:12.495Z,0.06
2023-02-14T05:23:41.020Z,0.32
2023-02-14T05:26:09.318Z,0.38
2023-02-14T05:28:37.602Z,0.28
2023-02-14T05:31:06.285Z,0.23
2023-02-14T05:33:34.675Z,0.21
2023-02-14T05:36:04.779Z,0.20
2023-02-14T05:38:34.900Z,0.60
2023-02-14T05:41:03.928Z,0.71
2023-02-14T05:43:32.693Z,0.69
2023-02-14T05:46:01.100Z,1.22
2023-02-14T05:48:29.430Z,1.19
2023-02-14T05:50:58.071Z,1.24
2023-02-14T05:53:28.254Z,1.13
2023-02-14T05:55:56.602Z,1.34
2023-02-14T05:58:25.322Z,1.24
2023-02-14T06:00:53.673Z,1.14
2023-02-14T06:03:22.009Z,1.21
2023-02-14T06:05:50.349Z,0.29
2023-02-14T06:08:18.698Z,0.76
2023-02-14T06:10:50.797Z,0.64
2023-02-14T06:13:19.109Z,0.69
2023-02-14T06:15:47.532Z,1.16
2023-02-14T06:18:15.876Z,1.13
2023-02-14T06:20:44.214Z,1.49
2023-02-14T06:23:14.578Z,1.06
2023-02-14T06:25:45.058Z,0.94
2023-02-14T06:28:14.772Z,0.33
2023-02-14T06:30:47.306Z,0.02
2023-02-14T06:33:16.052Z,0.36
2023-02-14T06:35:44.363Z,0.41
2023-02-14T06:38:12.697Z,0.50
2023-02-14T06:40:40.956Z,0.57
2023-02-14T06:43:09.240Z,0.68
2023-02-14T06:45:39.412Z,1.00
2023-02-14T06:48:07.748Z,1.05
2023-02-14T06:50:36.301Z,1.31
2023-02-14T06:53:04.635Z,1.14
2023-02-14T06:55:32.955Z,1.04
2023-02-14T06:58:01.365Z,0.43
2023-02-14T07:00:29.721Z,-0.02
2023-02-14T07:02:59.442Z,-0.26
2023-02-14T07:05:27.983Z,-0.29
2023-02-14T07:07:56.253Z,-0.18
2023-02-14T07:10:24.601Z,-0.41
2023-02-14T07:12:52.988Z,-0.46
2023-02-14T07:15:21.742Z,0.22
2023-02-14T07:17:50.101Z,-0.37
2023-02-14T07:20:22.480Z,-0.20
2023-02-14T07:22:50.751Z,-0.10
2023-02-14T07:25:19.093Z,0.01
2023-02-14T07:27:47.435Z,-0.55
2023-02-14T07:30:16.397Z,-0.49
2023-02-14T07:32:47.202Z,-0.38
2023-02-14T07:35:15.530Z,-0.27
2023-02-14T07:37:45.232Z,-0.38
2023-02-14T07:40:15.214Z,-0.14
2023-02-14T07:42:44.200Z,-0.13
2023-02-14T07:45:21.550Z,0.10
2023-02-14T07:47:51.655Z,0.19
2023-02-14T07:50:20.417Z,0.20
2023-02-14T07:52:50.488Z,0.12
2023-02-14T07:55:19.746Z,-0.13
2023-02-14T07:57:49.022Z,0.61
2023-02-14T08:00:18.276Z,0.68
2023-02-14T08:02:49.477Z,0.31
2023-02-14T08:05:18.339Z,0.38
2023-02-14T08:07:47.241Z,0.38
2023-02-14T08:10:19.606Z,0.57
2023-02-14T08:12:59.938Z,0.76
2023-02-14T08:15:47.779Z,0.55
2023-02-14T08:18:17.501Z,0.95
2023-02-14T08:20:46.578Z,0.74
2023-02-14T08:23:14.921Z,1.12
2023-02-14T08:25:44.618Z,1.11
2023-02-14T08:28:14.930Z,1.09
2023-02-14T08:30:44.005Z,1.33
2023-02-14T08:33:12.698Z,1.45
2023-02-14T08:35:41.189Z,1.51
2023-02-14T08:38:09.484Z,1.36
2023-02-14T08:40:38.277Z,1.84
2023-02-14T08:43:10.929Z,2.23
2023-02-14T08:45:40.177Z,1.75
2023-02-14T08:48:11.146Z,1.91
2023-02-14T08:50:40.706Z,2.04
2023-02-14T08:53:09.656Z,2.00
2023-02-14T08:55:39.347Z,1.88
2023-02-14T08:58:08.192Z,2.54
2023-02-14T09:00:38.080Z,1.96
2023-02-14T09:03:06.677Z,2.41
2023-02-14T09:05:37.257Z,2.40
2023-02-14T09:08:07.876Z,2.43
2023-02-14T09:10:36.382Z,2.30
2023-02-14T09:13:04.757Z,3.19
2023-02-14T09:15:33.087Z,2.84
2023-02-14T09:18:02.900Z,2.72
2023-02-14T09:20:31.493Z,2.66
2023-02-14T09:22:59.782Z,3.01
2023-02-14T09:25:28.148Z,2.71
2023-02-14T09:27:56.537Z,2.89
2023-02-14T09:30:24.889Z,2.87
2023-02-14T09:32:54.058Z,3.31
2023-02-14T09:35:41.027Z,2.58
2023-02-14T09:38:11.973Z,2.45
2023-02-14T09:40:40.418Z,2.88
2023-02-14T09:43:13.105Z,2.06
2023-02-14T09:45:41.808Z,2.48
2023-02-14T09:48:19.503Z,2.20
2023-02-14T09:50:52.721Z,2.63
2023-02-14T09:53:27.702Z,2.50
2023-02-14T09:56:04.156Z,2.38
2023-02-14T09:58:37.444Z,2.34
2023-02-14T10:01:16.353Z,2.48
2023-02-14T10:04:16.772Z,2.49
2023-02-14T10:06:53.610Z,2.58
2023-02-14T10:09:44.664Z,2.68
2023-02-14T10:12:20.689Z,3.28
2023-02-14T10:14:50.318Z,3.32
2023-02-14T10:17:23.001Z,3.35
2023-02-14T10:19:57.371Z,3.38
2023-02-14T10:22:34.917Z,3.20
2023-02-14T10:25:07.528Z,4.17
2023-02-14T10:27:39.574Z,3.70
2023-02-14T10:30:14.010Z,4.10
2023-02-14T10:32:46.936Z,3.91
2023-02-14T10:35:29.068Z,4.00
2023-02-14T10:38:11.183Z,4.04
2023-02-14T10:40:50.529Z,3.85
2023-02-14T10:43:31.405Z,4.43
2023-02-14T10:46:06.789Z,4.54
2023-02-14T10:48:46.325Z,4.40
2023-02-14T10:51:20.977Z,5.26
2023-02-14T10:54:04.979Z,4.36
2023-02-14T10:56:36.541Z,4.79
2023-02-14T10:59:17.961Z,3.97
2023-02-14T11:01:47.623Z,4.87
2023-02-14T11:04:18.176Z,4.74
2023-02-14T11:06:49.153Z,4.83
2023-02-14T11:09:19.646Z,4.55
2023-02-14T11:11:51.458Z,5.78
2023-02-14T11:14:26.500Z,4.83
2023-02-14T11:16:56.090Z,4.93
2023-02-14T11:19:27.711Z,4.77
2023-02-14T11:21:59.224Z,5.12
2023-02-14T11:24:34.839Z,5.27
2023-02-14T11:27:06.298Z,5.11
2023-02-14T11:29:37.445Z,5.25
2023-02-14T11:32:10.704Z,5.26
2023-02-14T11:34:41.984Z,4.87
2023-02-14T11:37:25.948Z,5.76
2023-02-14T11:40:00.636Z,5.47
2023-02-14T11:42:41.417Z,5.51
2023-02-14T11:45:29.293Z,5.78
2023-02-14T11:48:19.964Z,6.07
2023-02-14T11:50:56.420Z,5.91
2023-02-14T11:53:27.237Z,5.86
2023-02-14T11:56:00.648Z,5.93
2023-02-14T11:58:34.434Z,6.31
2023-02-14T12:01:03.233Z,6.25
2023-02-14T12:03:39.956Z,6.48
2023-02-14T12:06:08.565Z,6.60
2023-02-14T12:08:41.981Z,6.49
2023-02-14T12:11:22.559Z,6.39
2023-02-14T12:13:55.365Z,6.54
2023-02-14T12:16:29.850Z,6.97
2023-02-14T12:19:03.985Z,6.72
2023-02-14T12:21:45.291Z,7.02
2023-02-14T12:24:21.438Z,7.47
2023-02-14T12:26:59.679Z,8.52
2023-02-14T12:29:34.002Z,7.44
2023-02-14T12:32:06.910Z,7.33
2023-02-14T12:34:37.360Z,7.47
2023-02-14T12:37:32.160Z,7.66
2023-02-14T12:40:12.636Z,8.07
2023-02-14T12:42:58.269Z,7.62
2023-02-14T12:45:43.453Z,7.68
2023-02-14T12:48:26.407Z,8.42
2023-02-14T12:51:03.135Z,7.74
2023-02-14T12:53:53.706Z,7.75
2023-02-14T12:56:34.650Z,8.54
2023-02-14T12:59:20.669Z,8.37
2023-02-14T13:02:36.195Z,8.89
2023-02-14T13:05:14.083Z,8.55
2023-02-14T13:07:54.714Z,8.48
2023-02-14T13:10:36.719Z,8.84
2023-02-14T13:13:10.231Z,8.49
2023-02-14T13:15:45.332Z,8.89
2023-02-14T13:18:25.617Z,8.52
2023-02-14T13:20:57.646Z,8.22
2023-02-14T13:23:31.642Z,8.90
2023-02-14T13:26:05.381Z,9.13
2023-02-14T13:28:34.358Z,8.70
2023-02-14T13:31:04.974Z,8.67
2023-02-14T13:33:37.912Z,9.55
2023-02-14T13:36:10.341Z,9.04
2023-02-14T13:38:44.873Z,9.08
2023-02-14T13:41:15.261Z,8.98
2023-02-14T13:43:49.282Z,9.40
2023-02-14T13:46:20.816Z,9.03
2023-02-14T13:49:04.874Z,9.32
2023-02-14T13:51:46.218Z,8.76
2023-02-14T13:54:33.739Z,9.12
2023-02-14T13:57:03.927Z,9.08
2023-02-14T13:59:34.023Z,9.51
2023-02-14T14:02:44.701Z,9.09
2023-02-14T14:05:50.206Z,9.23
2023-02-14T14:08:38.990Z,9.10
2023-02-14T14:11:12.730Z,9.37
2023-02-14T14:14:02.536Z,9.48
2023-02-14T14:16:34.923Z,10.23
2023-02-14T14:19:14.799Z,9.20
2023-02-14T14:21:45.349Z,9.76
2023-02-14T14:24:23.060Z,9.78
2023-02-14T14:26:58.260Z,9.18
2023-02-14T14:29:31.006Z,9.87
2023-02-14T14:32:01.113Z,10.29
2023-02-14T14:34:30.789Z,9.65
2023-02-14T14:37:04.093Z,9.29
2023-02-14T14:39:33.923Z,9.82
2023-02-14T14:42:10.971Z,9.54
2023-02-14T14:44:48.144Z,9.40
2023-02-14T14:47:20.599Z,10.20
2023-02-14T14:49:50.359Z,10.12
2023-02-14T14:52:31.572Z,10.03
2023-02-14T14:55:01.827Z,9.79
2023-02-14T14:57:30.135Z,9.92
2023-02-14T15:00:09.341Z,9.68
2023-02-14T15:02:37.890Z,9.65
2023-02-14T15:05:26.406Z,9.56
2023-02-14T15:07:54.943Z,9.32
2023-02-14T15:10:25.934Z,9.62
2023-02-14T15:13:15.775Z,9.66
2023-02-14T15:15:51.022Z,10.23
2023-02-14T15:18:21.296Z,9.63
2023-02-14T15:20:52.781Z,9.69
2023-02-14T15:23:24.834Z,9.34
2023-02-14T15:25:53.601Z,9.38
2023-02-14T15:28:29.479Z,9.33
2023-02-14T15:31:00.893Z,9.04
2023-02-14T15:33:31.323Z,9.19
2023-02-14T15:36:04.220Z,9.23
2023-02-14T15:38:36.334Z,9.10
2023-02-14T15:41:04.718Z,9.43
2023-02-14T15:43:37.062Z,9.28
2023-02-14T15:46:17.096Z,9.46
2023-02-14T15:48:46.997Z,9.30
2023-02-14T15:51:21.611Z,9.45
2023-02-14T15:53:54.569Z,8.98
2023-02-14T15:56:26.043Z,8.59
2023-02-14T15:59:00.552Z,8.63
2023-02-14T16:01:30.709Z,8.33
2023-02-14T16:04:01.548Z,8.48
2023-02-14T16:06:38.070Z,8.18
2023-02-14T16:09:08.889Z,7.99
2023-02-14T16:11:39.921Z,7.82
2023-02-14T16:14:31.886Z,7.78
2023-02-14T16:17:02.115Z,7.55
2023-02-14T16:19:36.259Z,7.46
2023-02-14T16:22:06.963Z,7.45
2023-02-14T16:24:36.006Z,7.29
2023-02-14T16:27:06.884Z,7.24
2023-02-14T16:29:36.737Z,7.02
2023-02-14T16:32:16.789Z,6.86
2023-02-14T16:34:47.162Z,6.78
2023-02-14T16:37:23.182Z,6.80
2023-02-14T16:39:53.845Z,6.50
2023-02-14T16:42:22.394Z,6.59
2023-02-14T16:44:51.284Z,6.25
2023-02-14T16:47:21.573Z,6.40
2023-02-14T16:49:50.747Z,6.27
2023-02-14T16:52:24.036Z,6.22
2023-02-14T16:54:52.514Z,6.12
2023-02-14T16:57:25.833Z,6.41
2023-02-14T16:59:56.362Z,6.15
2023-02-14T17:02:26.345Z,5.95
2023-02-14T17:04:55.628Z,5.86
2023-02-14T17:07:30.188Z,6.13
2023-02-14T17:10:03.704Z,5.76
2023-02-14T17:12:36.168Z,5.98
2023-02-14T17:15:09.366Z,5.93
2023-02-14T17:17:39.046Z,5.83
2023-02-14T17:20:10.113Z,5.75
2023-02-14T17:22:42.441Z,5.70
2023-02-14T17:25:10.808Z,5.83
2023-02-14T17:27:43.791Z,5.68
2023-02-14T17:30:13.356Z,5.78
2023-02-14T17:32:41.763Z,6.27
2023-02-14T17:35:10.793Z,5.94
2023-02-14T17:37:40.615Z,6.33
2023-02-14T17:40:10.552Z,5.92
2023-02-14T17:42:39.566Z,6.48
2023-02-14T17:45:11.752Z,6.14
2023-02-14T17:47:43.140Z,6.07
2023-02-14T17:50:13.102Z,5.66
2023-02-14T17:52:43.771Z,5.83
2023-02-14T17:55:13.087Z,5.90
2023-02-14T17:57:41.589Z,6.06
2023-02-14T18:00:12.147Z,5.17
2023-02-14T18:02:43.553Z,5.48
2023-02-14T18:05:12.216Z,5.45
2023-02-14T18:07:43.375Z,5.64
2023-02-14T18:10:12.193Z,5.72
2023-02-14T18:12:40.564Z,5.28
2023-02-14T18:15:09.874Z,5.74
2023-02-14T18:17:38.156Z,5.02
2023-02-14T18:20:07.906Z,5.44
2023-02-14T18:22:36.686Z,5.27
2023-02-14T18:25:07.557Z,5.25
2023-02-14T18:27:35.875Z,5.18
2023-02-14T18:30:04.988Z,4.70
2023-02-14T18:32:35.597Z,4.95
2023-02-14T18:35:04.018Z,4.75
2023-02-14T18:37:32.302Z,4.36
2023-02-14T18:40:00.786Z,4.70
2023-02-14T18:42:30.625Z,4.61
2023-02-14T18:44:58.952Z,4.61
2023-02-14T18:47:27.304Z,5.17
2023-02-14T18:49:55.654Z,5.10
2023-02-14T18:52:24.636Z,5.25
2023-02-14T18:54:53.415Z,4.95
2023-02-14T18:57:21.899Z,4.61
2023-02-14T18:59:51.956Z,4.80
2023-02-14T19:02:20.398Z,4.44
2023-02-14T19:04:48.992Z,4.90
2023-02-14T19:07:17.405Z,4.77
2023-02-14T19:09:46.308Z,4.51
2023-02-14T19:12:15.014Z,4.42
2023-02-14T19:14:43.394Z,4.48
2023-02-14T19:17:13.150Z,4.44
2023-02-14T19:19:41.539Z,4.07
2023-02-14T19:22:09.836Z,3.93
2023-02-14T19:24:38.202Z,3.73
2023-02-14T19:27:07.213Z,3.69
2023-02-14T19:29:35.592Z,3.56
2023-02-14T19:32:03.884Z,3.84
2023-02-14T19:34:33.998Z,3.98
2023-02-14T19:37:02.736Z,3.62
2023-02-14T19:39:32.559Z,4.26
2023-02-14T19:42:01.570Z,3.75
2023-02-14T19:44:31.029Z,3.92
2023-02-14T19:47:02.897Z,4.11
2023-02-14T19:49:35.925Z,4.14
2023-02-14T19:52:07.612Z,3.54
2023-02-14T19:54:39.174Z,3.71
2023-02-14T19:57:07.582Z,3.44
2023-02-14T19:59:35.826Z,3.67
2023-02-14T20:02:04.674Z,4.02
2023-02-14T20:04:33.412Z,3.74
2023-02-14T20:07:03.049Z,3.61
2023-02-14T20:09:31.331Z,3.44
2023-02-14T20:12:01.175Z,3.38
2023-02-14T20:14:40.800Z,3.89
2023-02-14T20:17:17.128Z,3.71
2023-02-14T20:19:45.453Z,3.10
2023-02-14T20:22:15.685Z,3.52
2023-02-14T20:24:45.981Z,3.07
2023-02-14T20:27:14.300Z,3.50
2023-02-14T20:29:43.412Z,3.62
2023-02-14T20:32:13.171Z,3.78
2023-02-14T20:34:42.927Z,3.50
2023-02-14T20:37:11.969Z,3.54
2023-02-14T20:39:41.859Z,4.01
2023-02-14T20:42:10.261Z,3.69
2023-02-14T20:44:38.793Z,3.54
2023-02-14T20:47:07.393Z,3.75
2023-02-14T20:49:35.827Z,3.58
2023-02-14T20:52:04.972Z,3.67
2023-02-14T20:54:33.317Z,3.90
2023-02-14T20:57:05.342Z,4.06
2023-02-14T20:59:33.850Z,3.20
2023-02-14T21:02:02.114Z,3.20
2023-02-14T21:04:31.756Z,3.38
2023-02-14T21:07:03.938Z,3.57
2023-02-14T21:09:32.925Z,4.10
2023-02-14T21:12:01.578Z,3.69
2023-02-14T21:14:31.261Z,3.26
2023-02-14T21:17:00.717Z,3.42
2023-02-14T21:19:29.020Z,3.15
2023-02-14T21:21:57.649Z,3.29
2023-02-14T21:24:26.008Z,2.69
2023-02-14T21:26:54.285Z,3.13
2023-02-14T21:29:22.917Z,3.06
2023-02-14T21:31:54.560Z,3.19
2023-02-14T21:34:22.901Z,3.30
2023-02-14T21:36:53.401Z,3.27
2023-02-14T21:39:25.679Z,3.05
2023-02-14T21:41:54.488Z,2.76
2023-02-14T21:44:36.853Z,2.80
2023-02-14T21:47:06.587Z,2.82
2023-02-14T21:49:52.530Z,3.00
2023-02-14T21:52:22.900Z,2.45
2023-02-14T21:54:51.252Z,2.76
2023-02-14T21:57:19.642Z,2.78
2023-02-14T22:02:40.436Z,2.99
2023-02-14T22:05:09.309Z,2.91
2023-02-14T22:07:39.805Z,3.06
2023-02-14T22:10:08.680Z,3.93
2023-02-14T22:12:37.089Z,3.86
2023-02-14T22:15:05.772Z,3.06
2023-02-14T22:17:35.571Z,3.43
2023-02-14T22:20:06.979Z,2.19
2023-02-14T22:22:35.347Z,2.64
2023-02-14T22:25:03.767Z,2.30
2023-02-14T22:27:32.170Z,2.02
2023-02-14T22:30:02.868Z,2.88
2023-02-14T22:32:31.216Z,2.68
2023-02-14T22:34:59.538Z,2.65
2023-02-14T22:37:29.230Z,2.21
2023-02-14T22:39:57.525Z,1.95
2023-02-14T22:42:25.865Z,2.18
2023-02-14T22:44:54.210Z,2.14
2023-02-14T22:47:22.556Z,2.36
2023-02-14T22:49:50.962Z,2.19
2023-02-14T22:52:19.261Z,2.44
2023-02-14T22:54:48.920Z,2.61
2023-02-14T22:57:19.625Z,2.36
2023-02-14T22:59:48.914Z,2.44
2023-02-14T23:02:17.274Z,2.60
2023-02-14T23:04:45.594Z,2.27
2023-02-14T23:07:15.982Z,2.64
2023-02-14T23:09:44.260Z,2.45
2023-02-14T23:12:27.881Z,2.14
2023-02-14T23:15:13.665Z,2.38
2023-02-14T23:17:59.514Z,1.93
2023-02-14T23:20:46.112Z,1.46
2023-02-14T23:23:14.408Z,1.29
2023-02-14T23:25:43.090Z,1.56
2023-02-14T23:28:12.754Z,1.91
2023-02-14T23:30:41.054Z,2.17
2023-02-14T23:33:09.468Z,1.77
2023-02-14T23:35:38.066Z,0.75
2023-02-14T23:38:06.367Z,0.55
2023-02-14T23:40:55.290Z,0.81
2023-02-14T23:43:24.917Z,0.81
2023-02-14T23:45:53.231Z,0.83
2023-02-14T23:48:21.485Z,0.24
2023-02-14T23:50:49.837Z,0.77
2023-02-14T23:53:18.074Z,0.19
2023-02-14T23:55:46.314Z,0.17
2023-02-14T23:58:14.610Z,0.42
